createdAt,value
2018-05-04T00:00:00.200Z,25.70
2018-05-04T00:02:26.745Z,23.73
2018-05-04T00:04:53.341Z,22.17
2018-05-04T00:07:19.822Z,25.97
2018-05-04T00:09:46.299Z,27.03
2018-05-04T00:12:12.840Z,23.87
2018-05-04T00:14:39.352Z,22.00
2018-05-04T00:17:05.952Z,24.47
2018-05-04T00:19:32.480Z,26.10
2018-05-04T00:21:58.953Z,22.77
2018-05-04T00:24:25.465Z,23.80
2018-05-04T00:26:52.005Z,25.20
2018-05-04T00:29:18.489Z,26.03
2018-05-04T00:31:45.016Z,21.73
2018-05-04T00:34:11.458Z,24.33
2018-05-04T00:36:37.920Z,23.50
2018-05-04T00:39:04.505Z,24.47
2018-05-04T00:41:31.113Z,24.13
2018-05-04T00:43:57.516Z,26.30
2018-05-04T00:46:24.033Z,22.03
2018-05-04T00:48:50.649Z,24.30
2018-05-04T00:51:17.140Z,24.07
2018-05-04T00:53:55.796Z,20.77
2018-05-04T00:56:22.417Z,22.67
2018-05-04T00:58:49.037Z,23.43
2018-05-04T01:01:15.537Z,21.37
2018-05-04T01:03:42.041Z,21.33
2018-05-04T01:06:08.548Z,22.43
2018-05-04T01:08:34.967Z,21.40
2018-05-04T01:11:01.606Z,25.67
2018-05-04T01:13:27.992Z,24.23
2018-05-04T01:15:54.474Z,19.13
2018-05-04T01:18:20.927Z,20.90
2018-05-04T01:20:47.443Z,18.93
2018-05-04T01:23:13.936Z,19.50
2018-05-04T01:25:40.472Z,21.50
2018-05-04T01:28:07.053Z,23.43
2018-05-04T01:30:33.485Z,18.00
2018-05-04T01:32:59.936Z,22.70
2018-05-04T01:35:26.389Z,18.83
2018-05-04T01:37:53.050Z,21.40
2018-05-04T01:40:19.560Z,20.40
2018-05-04T01:42:46.044Z,20.33
2018-05-04T01:45:12.559Z,26.20
2018-05-04T01:47:39.132Z,30.87
2018-05-04T01:50:05.701Z,48.17
2018-05-04T01:52:32.173Z,37.63
2018-05-04T01:54:58.816Z,35.20
2018-05-04T01:57:25.221Z,32.57
2018-05-04T01:59:51.608Z,34.03
2018-05-04T02:02:18.224Z,34.27
2018-05-04T02:04:44.743Z,31.63
2018-05-04T02:07:11.251Z,26.70
2018-05-04T02:09:37.788Z,24.50
2018-05-04T02:12:04.347Z,24.67
2018-05-04T02:14:30.852Z,19.53
2018-05-04T02:16:57.362Z,26.67
2018-05-04T02:19:23.848Z,22.93
2018-05-04T02:21:50.336Z,17.50
2018-05-04T02:24:16.791Z,17.47
2018-05-04T02:26:43.335Z,24.07
2018-05-04T02:29:09.909Z,17.87
2018-05-04T02:31:36.261Z,21.30
2018-05-04T02:34:02.783Z,17.63
2018-05-04T02:36:29.359Z,23.80
2018-05-04T02:38:55.875Z,16.40
2018-05-04T02:41:22.332Z,18.30
2018-05-04T02:43:48.765Z,18.10
2018-05-04T02:46:15.293Z,22.30
2018-05-04T02:48:41.838Z,19.60
2018-05-04T02:51:08.364Z,18.67
2018-05-04T02:53:34.874Z,20.03
2018-05-04T02:56:01.441Z,17.03
2018-05-04T02:58:27.889Z,20.20
2018-05-04T03:00:54.356Z,17.77
2018-05-04T03:03:20.947Z,19.33
2018-05-04T03:05:47.398Z,16.10
2018-05-04T03:08:13.875Z,22.97
2018-05-04T03:10:40.455Z,18.77
2018-05-04T03:13:07.004Z,18.73
2018-05-04T03:15:33.453Z,17.97
2018-05-04T03:17:59.997Z,19.90
2018-05-04T03:20:26.595Z,21.30
2018-05-04T03:22:53.064Z,18.13
2018-05-04T03:25:19.585Z,24.50
2018-05-04T03:27:46.226Z,22.43
2018-05-04T03:30:12.733Z,21.63
2018-05-04T03:32:39.328Z,19.13
2018-05-04T03:35:05.757Z,23.83
2018-05-04T03:37:32.220Z,26.13
2018-05-04T03:39:58.789Z,21.33
2018-05-04T03:42:25.213Z,24.20
2018-05-04T03:44:51.680Z,19.40
2018-05-04T03:47:19.045Z,24.87
2018-05-04T03:49:45.554Z,19.57
2018-05-04T03:52:12.137Z,22.00
2018-05-04T03:54:38.646Z,22.20
2018-05-04T03:57:17.209Z,22.63
2018-05-04T03:59:55.914Z,22.03
2018-05-04T04:02:34.540Z,20.87
2018-05-04T04:05:00.780Z,18.77
2018-05-04T04:07:27.316Z,22.90
2018-05-04T04:09:53.797Z,22.60
2018-05-04T04:12:20.458Z,25.13
2018-05-04T04:14:47.101Z,17.87
2018-05-04T04:17:13.564Z,18.23
2018-05-04T04:19:39.947Z,22.60
2018-05-04T04:22:06.391Z,20.57
2018-05-04T04:24:32.876Z,25.90
2018-05-04T04:26:59.394Z,20.57
2018-05-04T04:29:25.858Z,22.30
2018-05-04T04:31:52.363Z,22.10
2018-05-04T04:34:19.009Z,23.13
2018-05-04T04:36:45.476Z,22.10
2018-05-04T04:39:12.013Z,22.03
2018-05-04T04:41:38.524Z,23.73
2018-05-04T04:44:05.009Z,25.57
2018-05-04T04:46:31.512Z,25.03
2018-05-04T04:48:58.025Z,29.83
2018-05-04T04:51:24.518Z,24.97
2018-05-04T04:53:51.042Z,27.90
2018-05-04T04:56:17.540Z,26.30
2018-05-04T04:58:44.021Z,25.77
2018-05-04T05:01:10.592Z,26.27
2018-05-04T05:03:37.070Z,28.73
2018-05-04T05:06:04.164Z,31.33
2018-05-04T05:08:30.890Z,23.77
2018-05-04T05:10:57.884Z,28.03
2018-05-04T05:13:24.892Z,23.83
2018-05-04T05:15:52.509Z,23.07
2018-05-04T05:18:19.184Z,23.40
2018-05-04T05:20:45.632Z,21.43
2018-05-04T05:23:12.143Z,19.60
2018-05-04T05:25:38.592Z,22.03
2018-05-04T05:28:05.085Z,24.20
2018-05-04T05:30:31.745Z,19.33
2018-05-04T05:32:58.234Z,18.70
2018-05-04T05:35:24.786Z,21.07
2018-05-04T05:37:51.465Z,23.43
2018-05-04T05:40:17.929Z,19.87
2018-05-04T05:42:44.438Z,18.40
2018-05-04T05:45:10.819Z,18.17
2018-05-04T05:47:37.408Z,23.47
2018-05-04T05:50:04.022Z,19.40
2018-05-04T05:52:30.597Z,20.80
2018-05-04T05:54:57.084Z,20.93
2018-05-04T05:57:23.628Z,20.57
2018-05-04T05:59:50.218Z,24.87
2018-05-04T06:02:16.662Z,19.50
2018-05-04T06:04:43.143Z,18.37
2018-05-04T06:07:09.610Z,18.83
2018-05-04T06:09:36.133Z,17.53
2018-05-04T06:12:02.753Z,18.70
2018-05-04T06:14:29.244Z,20.07
2018-05-04T06:16:55.608Z,20.43
2018-05-04T06:19:22.048Z,19.63
2018-05-04T06:21:48.564Z,20.27
2018-05-04T06:24:15.076Z,20.00
2018-05-04T06:26:41.561Z,16.93
2018-05-04T06:29:08.031Z,18.30
2018-05-04T06:31:34.602Z,19.20
2018-05-04T06:34:01.111Z,24.07
2018-05-04T06:36:27.520Z,20.77
2018-05-04T06:38:54.050Z,19.67
2018-05-04T06:41:20.569Z,21.83
2018-05-04T06:43:47.103Z,16.70
2018-05-04T06:46:13.699Z,18.27
2018-05-04T06:48:40.192Z,15.30
2018-05-04T06:51:06.903Z,20.07
2018-05-04T06:53:33.564Z,20.37
2018-05-04T06:56:00.086Z,20.67
2018-05-04T06:58:27.068Z,17.47
2018-05-04T07:00:53.592Z,20.03
2018-05-04T07:03:20.126Z,16.87
2018-05-04T07:05:46.579Z,15.30
2018-05-04T07:08:13.138Z,21.20
2018-05-04T07:10:39.699Z,20.13
2018-05-04T07:13:06.200Z,16.27
2018-05-04T07:15:32.730Z,14.43
2018-05-04T07:17:59.265Z,17.70
2018-05-04T07:20:25.746Z,18.40
2018-05-04T07:22:52.246Z,15.37
2018-05-04T07:25:18.608Z,19.20
2018-05-04T07:27:45.117Z,14.97
2018-05-04T07:30:11.564Z,14.63
2018-05-04T07:32:37.978Z,18.37
2018-05-04T07:35:04.366Z,18.43
2018-05-04T07:37:30.906Z,16.70
2018-05-04T07:39:57.496Z,19.73
2018-05-04T07:42:24.028Z,22.50
2018-05-04T07:44:50.548Z,18.57
2018-05-04T07:47:17.140Z,18.43
2018-05-04T07:49:43.736Z,21.53
2018-05-04T07:52:10.209Z,15.07
2018-05-04T07:54:36.655Z,18.43
2018-05-04T07:57:03.060Z,35.00
2018-05-04T07:59:29.501Z,40.63
2018-05-04T08:01:55.904Z,109.87
2018-05-04T08:04:22.277Z,38.87
2018-05-04T08:06:48.698Z,127.63
2018-05-04T08:09:15.066Z,234.07
2018-05-04T08:11:41.447Z,54.73
2018-05-04T08:14:07.852Z,48.23
2018-05-04T08:16:34.276Z,41.37
2018-05-04T08:19:00.613Z,18.10
2018-05-04T08:21:27.017Z,18.23
2018-05-04T08:23:53.377Z,20.03
2018-05-04T08:26:19.836Z,16.27
2018-05-04T08:35:08.148Z,69.73
2018-05-04T08:37:34.615Z,52.53
2018-05-04T08:40:01.031Z,59.20
2018-05-04T08:42:27.479Z,49.40
2018-05-04T08:44:53.962Z,39.63
2018-05-04T08:47:20.561Z,23.80
2018-05-04T08:49:47.069Z,23.10
2018-05-04T08:52:13.592Z,17.67
2018-05-04T09:00:12.235Z,20.53
2018-05-04T09:02:38.703Z,71.83
2018-05-04T09:05:05.260Z,41.27
2018-05-04T09:07:31.669Z,24.10
2018-05-04T09:09:58.126Z,63.07
2018-05-04T09:12:24.729Z,56.07
2018-05-04T09:14:51.221Z,35.87
2018-05-04T09:17:17.616Z,36.60
2018-05-04T09:19:44.295Z,38.13
2018-05-04T09:22:10.856Z,17.43
2018-05-04T09:24:37.484Z,19.30
2018-05-04T09:27:03.897Z,91.83
2018-05-04T09:29:30.263Z,50.13
2018-05-04T09:31:56.661Z,25.37
2018-05-04T09:34:23.145Z,29.27
2018-05-04T09:36:49.568Z,30.77
2018-05-04T09:39:16.038Z,21.60
2018-05-04T09:41:42.618Z,16.97
2018-05-04T09:44:09.124Z,20.20
2018-05-04T09:46:35.588Z,30.43
2018-05-04T09:49:02.040Z,20.33
2018-05-04T09:51:28.548Z,22.03
2018-05-04T09:53:55.094Z,22.30
2018-05-04T09:56:21.521Z,18.10
2018-05-04T09:58:48.020Z,19.90
2018-05-04T10:01:14.585Z,31.67
2018-05-04T10:03:40.949Z,28.23
2018-05-04T10:06:07.411Z,16.67
2018-05-04T10:08:33.912Z,18.37
2018-05-04T10:11:00.471Z,19.80
2018-05-04T10:13:26.929Z,16.97
2018-05-04T10:15:53.384Z,16.13
2018-05-04T10:18:19.728Z,15.60
2018-05-04T10:20:46.112Z,16.90
2018-05-04T10:23:12.531Z,20.00
2018-05-04T10:25:38.948Z,13.60
2018-05-04T10:28:05.400Z,14.97
2018-05-04T10:30:31.901Z,16.17
2018-05-04T10:32:58.356Z,18.77
2018-05-04T10:35:24.832Z,17.43
2018-05-04T10:37:51.302Z,14.43
2018-05-04T10:40:17.737Z,15.63
2018-05-04T10:42:44.213Z,14.07
2018-05-04T10:45:10.642Z,15.03
2018-05-04T10:47:37.043Z,18.30
2018-05-04T10:50:03.581Z,14.17
2018-05-04T10:52:30.016Z,16.43
2018-05-04T10:54:56.497Z,12.37
2018-05-04T10:57:23.284Z,13.77
2018-05-04T10:59:49.800Z,14.70
2018-05-04T11:02:16.279Z,15.90
2018-05-04T11:04:42.836Z,15.27
2018-05-04T11:07:09.368Z,14.67
2018-05-04T11:09:35.933Z,14.23
2018-05-04T11:12:02.421Z,12.37
2018-05-04T11:14:28.927Z,16.13
2018-05-04T11:16:55.457Z,16.07
2018-05-04T11:19:22.035Z,13.40
2018-05-04T11:21:48.508Z,16.23
2018-05-04T11:24:15.049Z,19.17
2018-05-04T11:29:12.799Z,69.77
2018-05-04T11:31:39.312Z,19.27
2018-05-04T11:34:05.808Z,54.90
2018-05-04T11:36:32.292Z,21.30
2018-05-04T11:38:58.849Z,15.83
2018-05-04T11:41:25.321Z,27.70
2018-05-04T11:43:51.877Z,27.43
2018-05-04T11:46:18.316Z,33.43
2018-05-04T11:48:44.748Z,16.03
2018-05-04T11:51:11.340Z,15.90
2018-05-04T11:53:38.424Z,30.73
2018-05-04T11:56:04.912Z,15.30
2018-05-04T11:58:31.878Z,22.97
2018-05-04T12:00:58.340Z,21.57
2018-05-04T12:03:24.811Z,15.93
2018-05-04T12:05:51.406Z,17.47
2018-05-04T12:08:18.032Z,17.47
2018-05-04T12:10:44.540Z,18.47
2018-05-04T12:13:11.128Z,18.80
2018-05-04T12:15:37.774Z,15.47
2018-05-04T12:18:04.362Z,15.90
2018-05-04T12:20:30.900Z,17.63
2018-05-04T12:22:57.677Z,20.80
2018-05-04T12:25:24.320Z,31.90
2018-05-04T12:27:50.709Z,14.80
2018-05-04T12:30:17.220Z,19.63
2018-05-04T12:32:43.704Z,68.40
2018-05-04T12:35:10.116Z,93.30
2018-05-04T12:37:36.565Z,19.93
2018-05-04T12:40:03.096Z,48.67
2018-05-04T12:42:29.512Z,90.30
2018-05-04T12:44:56.060Z,16.87
2018-05-04T12:47:22.564Z,34.40
2018-05-04T12:49:49.117Z,13.60
2018-05-04T12:52:15.565Z,21.23
2018-05-04T12:54:42.216Z,84.67
2018-05-04T12:57:08.646Z,25.03
2018-05-04T12:59:35.336Z,30.03
2018-05-04T13:02:01.827Z,18.53
2018-05-04T13:04:28.341Z,70.00
2018-05-04T13:06:55.241Z,56.67
2018-05-04T13:09:21.984Z,91.23
2018-05-04T13:11:48.375Z,74.67
2018-05-04T13:14:14.841Z,106.83
2018-05-04T13:16:41.309Z,27.17
2018-05-04T13:19:07.881Z,69.20
2018-05-04T13:21:34.406Z,90.93
2018-05-04T13:24:01.022Z,40.00
2018-05-04T13:26:27.590Z,68.23
2018-05-04T13:28:54.157Z,27.27
2018-05-04T13:31:20.601Z,24.00
2018-05-04T13:33:47.071Z,45.90
2018-05-04T13:36:13.619Z,19.93
2018-05-04T13:38:40.037Z,23.17
2018-05-04T13:41:06.542Z,18.03
2018-05-04T13:43:33.197Z,48.03
2018-05-04T13:45:59.689Z,63.03
2018-05-04T13:48:26.252Z,41.43
2018-05-04T13:50:52.808Z,64.70
2018-05-04T13:53:19.231Z,44.10
2018-05-04T13:55:50.644Z,27.07
2018-05-04T13:58:17.154Z,16.67
2018-05-04T14:00:47.419Z,47.43
2018-05-04T14:03:14.059Z,25.90
2018-05-04T14:05:40.564Z,40.83
2018-05-04T14:08:07.019Z,36.93
2018-05-04T14:10:33.481Z,29.93
2018-05-04T14:13:00.054Z,18.67
2018-05-04T14:15:26.484Z,29.60
2018-05-04T14:17:53.044Z,27.83
2018-05-04T14:20:19.594Z,40.63
2018-05-04T14:22:46.045Z,31.70
2018-05-04T14:25:12.580Z,32.63
2018-05-04T14:27:39.184Z,37.97
2018-05-04T14:30:05.798Z,31.77
2018-05-04T14:32:32.309Z,23.93
2018-05-04T14:34:58.893Z,24.47
2018-05-04T14:37:26.170Z,30.90
2018-05-04T14:39:52.685Z,22.20
2018-05-04T14:42:19.192Z,20.83
2018-05-04T14:44:45.715Z,20.67
2018-05-04T14:47:12.313Z,23.73
2018-05-04T14:49:38.796Z,17.13
2018-05-04T14:52:05.353Z,17.53
2018-05-04T14:54:31.782Z,14.70
2018-05-04T14:56:58.241Z,19.63
2018-05-04T14:59:24.871Z,24.37
2018-05-04T15:01:51.539Z,31.67
2018-05-04T15:04:18.237Z,20.87
2018-05-04T15:06:44.720Z,17.47
2018-05-04T15:09:11.254Z,21.60
2018-05-04T15:11:37.845Z,16.67
2018-05-04T15:14:04.394Z,13.23
2018-05-04T15:16:30.924Z,18.07
2018-05-04T15:18:57.420Z,13.00
2018-05-04T15:21:23.932Z,17.97
2018-05-04T15:23:50.372Z,30.50
2018-05-04T15:26:16.959Z,21.27
2018-05-04T15:28:43.421Z,51.97
2018-05-04T15:31:09.910Z,51.63
2018-05-04T15:33:36.420Z,60.77
2018-05-04T15:36:02.932Z,159.07
2018-05-04T15:38:29.518Z,140.33
2018-05-04T15:40:56.277Z,154.43
2018-05-04T15:43:22.783Z,58.27
2018-05-04T15:45:49.240Z,104.60
2018-05-04T15:48:21.944Z,20.27
2018-05-04T15:50:54.657Z,72.03
2018-05-04T15:53:21.212Z,37.70
2018-05-04T15:55:47.702Z,21.17
2018-05-04T15:58:14.345Z,42.67
2018-05-04T16:00:40.980Z,29.10
2018-05-04T16:03:07.645Z,30.60
2018-05-04T16:05:34.196Z,34.63
2018-05-04T16:08:00.789Z,32.70
2018-05-04T16:10:27.455Z,18.90
2018-05-04T16:12:54.027Z,26.20
2018-05-04T16:15:20.508Z,33.50
2018-05-04T16:17:47.202Z,26.07
2018-05-04T16:20:13.711Z,24.00
2018-05-04T16:22:40.328Z,27.97
2018-05-04T16:25:06.904Z,9.77
2018-05-04T16:27:33.669Z,11.63
2018-05-04T16:30:00.372Z,9.70
2018-05-04T16:32:26.833Z,13.03
2018-05-04T16:34:53.304Z,10.57
2018-05-04T16:37:19.757Z,10.63
2018-05-04T16:39:46.277Z,13.17
2018-05-04T16:42:12.798Z,6.47
2018-05-04T16:44:39.168Z,10.53
2018-05-04T16:47:11.708Z,11.53
2018-05-04T16:49:38.245Z,6.77
2018-05-04T16:52:04.699Z,12.23
2018-05-04T16:54:31.205Z,21.70
2018-05-04T16:56:57.719Z,12.30
2018-05-04T16:59:24.353Z,16.13
2018-05-04T17:01:51.287Z,10.60
2018-05-04T17:04:17.801Z,10.63
2018-05-04T17:06:44.242Z,9.70
2018-05-04T17:09:11.198Z,12.57
2018-05-04T17:11:37.689Z,10.30
2018-05-04T17:14:04.265Z,14.50
2018-05-04T17:16:31.052Z,12.90
2018-05-04T17:18:57.506Z,9.13
2018-05-04T17:21:24.077Z,13.37
2018-05-04T17:23:50.744Z,11.60
2018-05-04T17:26:17.332Z,13.63
2018-05-04T17:28:43.739Z,8.33
2018-05-04T17:31:10.304Z,9.83
2018-05-04T17:33:36.836Z,11.17
2018-05-04T17:36:03.317Z,10.83
2018-05-04T17:38:30.017Z,13.27
2018-05-04T17:40:56.444Z,12.53
2018-05-04T17:43:23.017Z,11.73
2018-05-04T17:45:49.577Z,13.87
2018-05-04T17:48:16.167Z,9.60
2018-05-04T17:50:43.450Z,11.70
2018-05-04T17:53:09.859Z,12.10
2018-05-04T17:55:36.525Z,11.90
2018-05-04T17:58:03.025Z,12.43
2018-05-04T18:00:29.512Z,12.00
2018-05-04T18:02:56.644Z,13.03
2018-05-04T18:05:23.210Z,12.83
2018-05-04T18:07:49.771Z,14.40
2018-05-04T18:10:16.363Z,11.23
2018-05-04T18:12:43.026Z,10.90
2018-05-04T18:15:09.515Z,16.97
2018-05-04T18:17:36.008Z,15.43
2018-05-04T18:20:02.767Z,15.30
2018-05-04T18:22:29.404Z,15.00
2018-05-04T18:24:55.965Z,14.27
2018-05-04T18:27:22.410Z,11.40
2018-05-04T18:29:48.955Z,14.43
2018-05-04T18:32:15.367Z,19.73
2018-05-04T18:34:41.779Z,12.57
2018-05-04T18:37:08.344Z,9.73
2018-05-04T18:39:34.920Z,17.27
2018-05-04T18:42:01.646Z,11.20
2018-05-04T18:44:28.060Z,19.13
2018-05-04T18:46:54.527Z,15.43
2018-05-04T18:49:21.161Z,17.07
2018-05-04T18:51:47.828Z,14.07
2018-05-04T18:54:14.268Z,11.33
2018-05-04T18:56:40.723Z,11.77
2018-05-04T18:59:07.208Z,10.07
2018-05-04T19:01:33.723Z,12.37
2018-05-04T19:04:00.187Z,8.33
2018-05-04T19:06:26.837Z,11.53
2018-05-04T19:08:53.485Z,11.17
2018-05-04T19:11:20.036Z,8.50
2018-05-04T19:13:46.621Z,9.53
2018-05-04T19:16:13.009Z,11.47
2018-05-04T19:18:39.617Z,9.47
2018-05-04T19:21:06.253Z,9.67
2018-05-04T19:23:32.727Z,8.20
2018-05-04T19:25:59.173Z,7.60
2018-05-04T19:28:25.725Z,11.13
2018-05-04T19:30:52.149Z,10.03
2018-05-04T19:33:18.633Z,11.67
2018-05-04T19:35:45.231Z,16.10
2018-05-04T19:38:11.792Z,12.43
2018-05-04T19:40:38.221Z,10.97
2018-05-04T19:43:04.664Z,8.63
2018-05-04T19:45:31.173Z,11.53
2018-05-04T19:47:57.622Z,10.90
2018-05-04T19:50:24.194Z,11.63
2018-05-04T19:52:50.676Z,12.53
2018-05-04T19:55:17.169Z,9.30
2018-05-04T19:57:43.711Z,8.17
2018-05-04T20:00:10.161Z,8.43
2018-05-04T20:02:36.656Z,8.03
2018-05-04T20:05:03.208Z,7.93
2018-05-04T20:07:29.749Z,11.73
2018-05-04T20:09:56.244Z,9.20
2018-05-04T20:12:22.768Z,11.33
2018-05-04T20:14:49.265Z,9.23
2018-05-04T20:17:15.853Z,6.90
2018-05-04T20:19:42.232Z,9.37
2018-05-04T20:22:08.804Z,15.77
2018-05-04T20:24:35.293Z,9.70
2018-05-04T20:27:01.820Z,9.33
2018-05-04T20:29:28.329Z,8.40
2018-05-04T20:31:54.790Z,9.77
2018-05-04T20:34:22.345Z,9.43
2018-05-04T20:36:48.929Z,10.63
2018-05-04T20:39:15.393Z,10.93
2018-05-04T20:41:41.853Z,9.37
2018-05-04T20:44:08.376Z,8.27
2018-05-04T20:46:34.921Z,11.50
2018-05-04T20:49:01.389Z,11.90
2018-05-04T20:51:27.860Z,11.57
2018-05-04T20:53:54.372Z,12.23
2018-05-04T20:56:20.824Z,10.63
2018-05-04T20:58:47.477Z,10.70
2018-05-04T21:01:13.940Z,12.33
2018-05-04T21:03:40.451Z,12.23
2018-05-04T21:06:07.023Z,12.93
2018-05-04T21:08:33.538Z,11.97
2018-05-04T21:11:00.176Z,9.53
2018-05-04T21:13:26.664Z,12.17
2018-05-04T21:15:53.152Z,9.27
2018-05-04T21:18:19.657Z,8.43
2018-05-04T21:20:46.217Z,14.63
2018-05-04T21:23:12.733Z,13.10
2018-05-04T21:25:39.329Z,13.53
2018-05-04T21:28:05.878Z,11.47
2018-05-04T21:30:32.349Z,13.00
2018-05-04T21:32:58.832Z,11.37
2018-05-04T21:35:25.233Z,11.37
2018-05-04T21:37:51.783Z,11.20
2018-05-04T21:40:18.242Z,9.83
2018-05-04T21:42:44.773Z,10.20
2018-05-04T21:45:11.520Z,10.03
2018-05-04T21:47:37.960Z,11.90
2018-05-04T21:50:04.460Z,15.57
2018-05-04T21:52:30.914Z,12.90
2018-05-04T21:54:57.425Z,14.03
2018-05-04T21:57:23.933Z,11.90
2018-05-04T21:59:50.504Z,22.83
2018-05-04T22:02:17.152Z,14.00
2018-05-04T22:04:43.623Z,11.20
2018-05-04T22:07:10.134Z,13.13
2018-05-04T22:09:36.778Z,13.20
2018-05-04T22:12:03.180Z,10.43
2018-05-04T22:14:29.685Z,11.20
2018-05-04T22:16:56.185Z,13.10
2018-05-04T22:19:22.693Z,13.57
2018-05-04T22:21:49.220Z,11.27
2018-05-04T22:24:15.762Z,12.17
2018-05-04T22:26:42.334Z,14.73
2018-05-04T22:29:08.812Z,10.50
2018-05-04T22:31:35.256Z,9.60
2018-05-04T22:34:01.841Z,11.93
2018-05-04T22:36:28.361Z,15.10
2018-05-04T22:38:54.868Z,12.23
2018-05-04T22:41:21.300Z,12.30
2018-05-04T22:43:47.739Z,12.80
2018-05-04T22:46:14.285Z,18.20
2018-05-04T22:48:40.854Z,12.40
2018-05-04T22:51:07.414Z,17.47
2018-05-04T22:53:34.132Z,10.70
2018-05-04T22:56:00.600Z,12.90
2018-05-04T22:58:27.071Z,15.20
2018-05-04T23:00:53.616Z,13.03
2018-05-04T23:03:20.054Z,12.17
2018-05-04T23:05:46.667Z,12.43
2018-05-04T23:08:13.108Z,12.93
2018-05-04T23:10:39.872Z,12.60
2018-05-04T23:13:06.354Z,14.57
2018-05-04T23:15:32.865Z,12.23
2018-05-04T23:17:59.340Z,11.90
2018-05-04T23:20:25.887Z,19.97
2018-05-04T23:22:52.305Z,12.67
2018-05-04T23:25:18.821Z,12.37
2018-05-04T23:27:45.323Z,16.43
2018-05-04T23:30:11.737Z,12.40
2018-05-04T23:32:38.309Z,13.83
2018-05-04T23:35:04.788Z,15.93
2018-05-04T23:37:31.409Z,10.30
2018-05-04T23:39:57.904Z,13.23
2018-05-04T23:42:24.457Z,12.63
2018-05-04T23:44:51.117Z,14.00
2018-05-04T23:47:17.700Z,12.40
2018-05-04T23:49:44.142Z,13.70
2018-05-04T23:52:10.602Z,10.20
2018-05-04T23:54:37.156Z,17.53
2018-05-04T23:57:03.617Z,12.57
2018-05-04T23:59:30.177Z,14.70
